Item Display Status Humidity-temperature Sensor

Elevation Above Sea Level: 3 m

 

Deployed Sensor

  • Serial Number: 20351123
  • NDBC Property Number: 43293
  • Start Date: 4/17/2020 (10:35:43 Z)
  • End Date: Currently Active
Relative Humidity [%]     6 entries per hour
Showing data from 5/7/2021 (04:00:00 Z) to 5/6/2021 (00:00:01 Z)
Previous Next [ Day | 3-Days | 7-Days ]
First Last
Prev [ Day | 3-Days | 7-Days ] Next
First Last

Start Time:     :
End Time:     :     
Time (in GMT) :00 :50 :40 :30 :20 :10
Previous Next [ Day | 3-Days | 7-Days ]
First Last
Prev [ Day | 3-Days | 7-Days ] Next
First Last


123 => good data
MM => data is determined as missing
-- => data not received/configured
Back to Top Back to Top
5/7/2021 04:00 to 3:10 82.85 83.36 83.61 83.50 84.08 83.48
5/7/2021 03:00 to 2:10 83.18 82.25 82.07 82.23 82.70 83.40
5/7/2021 02:00 to 1:10 83.55 83.92 84.00 84.66 84.72 84.55
5/7/2021 01:00 to 0:10 85.00 85.27 84.82 84.14 83.42 83.05
5/7/2021 00:00 to 23:10 81.80 81.18 80.71 80.28 80.55 80.52
5/6/2021 23:00 to 22:10 80.40 81.29 81.14 81.43 81.31 81.12
5/6/2021 22:00 to 21:10 81.43 81.33 80.36 80.28 80.30 80.59
5/6/2021 21:00 to 20:10 80.50 80.59 80.32 80.34 80.77 80.34
5/6/2021 20:00 to 19:10 80.65 81.16 81.68 82.13 82.05 82.60
5/6/2021 19:00 to 18:10 82.54 83.28 82.37 82.13 82.58 82.23
5/6/2021 18:00 to 17:10 81.37 81.22 80.32 80.07 80.01 81.02
5/6/2021 17:00 to 16:10 81.35 81.74 81.72 80.61 81.80 82.02
5/6/2021 16:00 to 15:10 81.84 82.48 82.50 83.07 82.83 82.21
5/6/2021 15:00 to 14:10 81.80 81.43 81.41 82.05 83.20 84.31
5/6/2021 14:00 to 13:10 83.92 82.25 81.04 81.37 81.57 81.20
5/6/2021 13:00 to 12:10 81.66 81.80 81.92 82.35 82.52 82.17
5/6/2021 12:00 to 11:10 82.19 81.82 82.02 82.52 82.91 82.66
5/6/2021 11:00 to 10:10 82.64 82.91 82.64 82.81 83.77 83.89
5/6/2021 10:00 to 9:10 84.06 84.49 84.33 84.41 84.86 84.55
5/6/2021 09:00 to 8:10 84.57 84.45 84.82 85.21 84.39 83.77
5/6/2021 08:00 to 7:10 83.83 84.20 84.06 84.10 84.00 83.79
5/6/2021 07:00 to 6:10 83.34 83.65 84.08 84.20 84.10 83.96
5/6/2021 06:00 to 5:10 83.96 83.87 83.57 83.61 83.44 83.16
5/6/2021 05:00 to 4:10 83.22 83.69 83.79 83.94 84.45 84.45
5/6/2021 04:00 to 3:10 84.00 84.16 84.59 84.76 83.98 84.00
5/6/2021 03:00 to 2:10 84.53 84.74 84.82 84.55 84.37 84.45
5/6/2021 02:00 to 1:10 84.82 84.70 84.72 84.84 85.21 84.96
5/6/2021 01:00 to 0:10 85.09 84.94 84.43 83.77 84.14 84.08

 

 

 

Air Temperature [°C]     6 entries per hour
Showing data from 5/7/2021 (04:00:00 Z) to 5/6/2021 (00:00:01 Z)
Previous Next [ Day | 3-Days | 7-Days ]
First Last
Prev [ Day | 3-Days | 7-Days ] Next
First Last

Start Time:     :
End Time:     :     
Time (in GMT) :00 :50 :40 :30 :20 :10
Previous Next [ Day | 3-Days | 7-Days ]
First Last
Prev [ Day | 3-Days | 7-Days ] Next
First Last


123 => good data
MM => data is determined as missing
-- => data not received/configured
Back to Top Back to Top
5/7/2021 04:00 to 3:10 26.86 27.00 27.00 26.80 27.01 26.82
5/7/2021 03:00 to 2:10 27.01 26.89 26.72 26.87 26.79 26.69
5/7/2021 02:00 to 1:10 26.69 26.63 26.70 26.65 26.79 26.82
5/7/2021 01:00 to 0:10 26.63 26.71 26.71 26.85 26.80 26.81
5/7/2021 00:00 to 23:10 27.13 27.22 27.18 27.34 27.23 27.43
5/6/2021 23:00 to 22:10 27.29 27.37 27.25 27.31 27.23 27.41
5/6/2021 22:00 to 21:10 27.09 27.45 27.28 27.20 27.24 27.23
5/6/2021 21:00 to 20:10 27.14 27.13 27.15 27.12 27.05 27.08
5/6/2021 20:00 to 19:10 27.07 26.92 27.10 26.93 26.92 26.93
5/6/2021 19:00 to 18:10 26.88 27.07 26.95 26.91 27.00 26.95
5/6/2021 18:00 to 17:10 26.94 27.02 27.09 26.93 26.80 26.80
5/6/2021 17:00 to 16:10 26.88 26.86 26.87 26.86 26.84 26.96
5/6/2021 16:00 to 15:10 26.74 26.72 26.73 26.76 26.74 26.78
5/6/2021 15:00 to 14:10 26.70 26.72 26.78 26.76 26.65 26.56
5/6/2021 14:00 to 13:10 26.58 26.73 26.56 26.54 26.78 26.58
5/6/2021 13:00 to 12:10 26.54 26.47 26.46 26.49 26.35 26.34
5/6/2021 12:00 to 11:10 26.44 26.30 26.26 26.25 26.30 26.43
5/6/2021 11:00 to 10:10 26.35 26.29 26.33 26.30 26.46 26.28
5/6/2021 10:00 to 9:10 26.32 26.30 26.38 26.30 26.34 26.29
5/6/2021 09:00 to 8:10 26.33 26.33 26.29 26.49 26.51 26.41
5/6/2021 08:00 to 7:10 26.33 26.30 26.45 26.38 26.52 26.56
5/6/2021 07:00 to 6:10 26.52 26.48 26.50 26.55 26.61 26.62
5/6/2021 06:00 to 5:10 26.64 26.50 26.59 26.68 26.61 26.65
5/6/2021 05:00 to 4:10 26.70 26.56 26.66 26.60 26.62 26.74
5/6/2021 04:00 to 3:10 26.61 26.63 26.51 26.65 26.67 26.66
5/6/2021 03:00 to 2:10 26.57 26.57 26.75 26.64 26.76 26.69
5/6/2021 02:00 to 1:10 26.84 26.68 26.69 26.63 26.68 26.68
5/6/2021 01:00 to 0:10 26.78 26.84 26.69 26.68 26.71 26.67